MiSS B. — WDC4192 — position and weather

sailwx.info

Track history (hours):
 
Tides and Currents Weather Stations Pressure Air Temp Water Temp Dewpoint Dewpoint Depression Visibility Wind Speed Wind Dir Waves Ship Positions

MiSS B.

More information available from US FCC via Universal Licensing System and Coast Guard Vessel Documentation Center.

Last reported at 2014-Sep-22 17:27 UTC. Time now 2014-Sep-30 18:08 UTC.
Position N 29°40' W 091°08'.
Warning: this ship's position is 8 days out of date.

; draft 1.5 m.

Type: Towing. MMSI: 367020590.

Date/timePositionNaut miles runAvg speedWind from/ knotsBaromVisibWave heightAir tempDewpointWater temp
2014-Sep-22 17:27N 29°40' W 091°08'4 4.0
2014-Sep-22 16:33N 29°41' W 091°11'4 4.3
2014-Sep-22 15:33N 29°39' W 091°16'  
2014-Sep-18 12:24N 29°50' W 091°60'0 0.0
2014-Sep-18 11:32N 29°50' W 092°00'0 0.0
2014-Sep-18 07:18N 29°50' W 092°00'32 2.5
2014-Sep-17 18:22N 29°39' W 091°25'5 6.5
2014-Sep-17 17:33N 29°38' W 091°19'6 6.5
2014-Sep-17 16:33N 29°41' W 091°13'4 4.5
2014-Sep-17 15:33N 29°40' W 091°08'  
Track history (hours):
 
Tides and Currents Weather Stations Pressure Air Temp Water Temp Dewpoint Dewpoint Depression Visibility Wind Speed Wind Dir Waves Ship Positions

MiSS B.

More information available from US FCC via Universal Licensing System and Coast Guard Vessel Documentation Center.

Last reported at 2014-Sep-22 17:27 UTC. Time now 2014-Sep-30 18:08 UTC.
Position N 29°40' W 091°08'.
Warning: this ship's position is 8 days out of date.

; draft 1.5 m.

Type: Towing. MMSI: 367020590.

Date/timePositionNaut miles runAvg speedWind from/ knotsBaromVisibWave heightAir tempDewpointWater temp
2014-Sep-22 17:27N 29°40' W 091°08'4 4.0
2014-Sep-22 16:33N 29°41' W 091°11'4 4.3
2014-Sep-22 15:33N 29°39' W 091°16'  
2014-Sep-18 12:24N 29°50' W 091°60'0 0.0
2014-Sep-18 11:32N 29°50' W 092°00'0 0.0
2014-Sep-18 07:18N 29°50' W 092°00'32 2.5
2014-Sep-17 18:22N 29°39' W 091°25'5 6.5
2014-Sep-17 17:33N 29°38' W 091°19'6 6.5
2014-Sep-17 16:33N 29°41' W 091°13'4 4.5
2014-Sep-17 15:33N 29°40' W 091°08'  

Dump ship's entire track history